createdAt,value
2022-11-02T00:00:44.816Z,100.00
2022-11-02T00:03:11.620Z,100.00
2022-11-02T00:05:38.184Z,100.00
2022-11-02T00:08:04.951Z,100.00
2022-11-02T00:10:31.467Z,100.00
2022-11-02T00:12:58.249Z,100.00
2022-11-02T00:15:27.727Z,100.00
2022-11-02T00:17:57.197Z,100.00
2022-11-02T00:20:23.740Z,100.00
2022-11-02T00:22:52.896Z,100.00
2022-11-02T00:25:22.810Z,100.00
2022-11-02T00:27:49.373Z,100.00
2022-11-02T00:30:16.035Z,100.00
2022-11-02T00:32:42.606Z,100.00
2022-11-02T00:35:12.684Z,100.00
2022-11-02T00:37:39.064Z,100.00
2022-11-02T00:40:06.320Z,100.00
2022-11-02T00:42:32.830Z,100.00
2022-11-02T00:44:59.393Z,100.00
2022-11-02T00:47:25.855Z,100.00
2022-11-02T00:49:52.330Z,100.00
2022-11-02T00:52:18.770Z,100.00
2022-11-02T00:54:45.307Z,100.00
2022-11-02T00:57:11.766Z,100.00
2022-11-02T00:59:38.315Z,100.00
2022-11-02T01:02:04.889Z,100.00
2022-11-02T01:04:31.519Z,100.00
2022-11-02T01:06:57.978Z,100.00
2022-11-02T01:09:24.618Z,100.00
2022-11-02T01:11:51.551Z,100.00
2022-11-02T01:14:18.040Z,100.00
2022-11-02T01:19:16.060Z,100.00
2022-11-02T01:21:42.516Z,100.00
2022-11-02T01:24:09.038Z,100.00
2022-11-02T01:26:35.552Z,100.00
2022-11-02T01:29:02.124Z,100.00
2022-11-02T01:31:28.708Z,100.00
2022-11-02T01:33:57.281Z,100.00
2022-11-02T01:36:24.010Z,100.00
2022-11-02T02:33:58.254Z,100.00
2022-11-02T02:36:31.113Z,100.00
2022-11-02T02:39:16.036Z,100.00
2022-11-02T02:42:15.342Z,100.00
2022-11-02T02:44:46.817Z,100.00
2022-11-02T02:47:24.402Z,100.00
2022-11-02T02:49:56.698Z,100.00
2022-11-02T02:52:26.934Z,100.00
2022-11-02T02:54:58.121Z,100.00
2022-11-02T02:57:28.274Z,100.00
2022-11-02T02:59:55.143Z,100.00
2022-11-02T03:02:36.021Z,100.00
2022-11-02T03:05:02.566Z,100.00
2022-11-02T03:07:33.917Z,100.00
2022-11-02T03:10:40.418Z,100.00
2022-11-02T03:13:36.352Z,100.00
2022-11-02T04:12:10.219Z,100.00
2022-11-02T04:14:41.822Z,100.00
2022-11-02T04:17:28.977Z,100.00
2022-11-02T04:19:56.401Z,100.00
2022-11-02T04:22:41.557Z,100.00
2022-11-02T04:25:16.120Z,100.00
2022-11-02T04:27:42.744Z,100.00
2022-11-02T04:30:10.171Z,100.00
2022-11-02T04:32:58.977Z,100.00
2022-11-02T04:35:25.524Z,100.00
2022-11-02T04:38:11.040Z,100.00
2022-11-02T04:40:37.543Z,100.00
2022-11-02T04:43:04.226Z,100.00
2022-11-02T04:45:30.746Z,100.00
2022-11-02T04:48:02.292Z,100.00
2022-11-02T04:50:29.771Z,100.00
2022-11-02T04:53:01.562Z,100.00
2022-11-02T04:55:29.198Z,100.00
2022-11-02T04:57:56.008Z,100.00
2022-11-02T05:00:23.318Z,100.00
2022-11-02T05:02:50.567Z,100.00
2022-11-02T05:05:18.238Z,100.00
2022-11-02T05:07:44.741Z,100.00
2022-11-02T05:10:11.568Z,100.00
2022-11-02T05:12:38.124Z,100.00
2022-11-02T05:15:05.246Z,100.00
2022-11-02T05:17:31.719Z,100.00
2022-11-02T05:19:58.224Z,100.00
2022-11-02T05:22:24.728Z,100.00
2022-11-02T05:24:51.245Z,100.00
2022-11-02T05:27:17.721Z,100.00
2022-11-02T05:29:44.298Z,100.00
2022-11-02T05:32:10.780Z,100.00
2022-11-02T05:34:37.241Z,100.00
2022-11-02T05:37:03.788Z,100.00
2022-11-02T05:39:30.323Z,100.00
2022-11-02T05:41:56.915Z,100.00
2022-11-02T05:44:23.360Z,100.00
2022-11-02T05:46:49.882Z,100.00
2022-11-02T05:49:16.391Z,100.00
2022-11-02T05:51:44.059Z,100.00
2022-11-02T06:50:05.599Z,100.00
2022-11-02T06:52:32.401Z,100.00
2022-11-02T06:54:58.962Z,100.00
2022-11-02T06:57:25.425Z,100.00
2022-11-02T06:59:54.119Z,100.00
2022-11-02T07:02:21.978Z,100.00
2022-11-02T07:04:49.618Z,100.00
2022-11-02T07:07:16.378Z,100.00
2022-11-02T07:09:42.871Z,100.00
2022-11-02T07:12:09.374Z,100.00
2022-11-02T07:14:35.867Z,100.00
2022-11-02T07:17:02.360Z,100.00
2022-11-02T07:19:28.847Z,100.00
2022-11-02T07:21:55.355Z,100.00
2022-11-02T07:24:21.874Z,100.00
2022-11-02T07:26:50.048Z,100.00
2022-11-02T07:29:17.790Z,100.00
2022-11-02T07:31:45.299Z,100.00
2022-11-02T07:34:16.707Z,100.00
2022-11-02T07:36:43.993Z,100.00
2022-11-02T07:39:10.491Z,100.00
2022-11-02T07:41:36.988Z,100.00
2022-11-02T07:44:03.577Z,100.00
2022-11-02T07:46:30.074Z,100.00
2022-11-02T07:48:57.069Z,100.00
2022-11-02T07:51:24.661Z,100.00
2022-11-02T07:53:51.175Z,100.00
2022-11-02T07:56:17.689Z,100.00
2022-11-02T07:58:44.207Z,100.00
2022-11-02T08:01:10.763Z,100.00
2022-11-02T08:03:37.257Z,100.00
2022-11-02T08:06:03.907Z,100.00
2022-11-02T08:08:30.711Z,100.00
2022-11-02T08:11:04.666Z,100.00
2022-11-02T08:13:32.659Z,100.00
2022-11-02T08:15:59.785Z,90.30
2022-11-02T08:18:28.167Z,84.80
2022-11-02T08:20:56.667Z,78.46
2022-11-02T08:23:24.231Z,68.34
2022-11-02T08:25:52.398Z,61.33
2022-11-02T08:28:25.848Z,56.44
2022-11-02T08:30:52.738Z,59.66
2022-11-02T08:33:20.505Z,62.69
2022-11-02T08:35:48.503Z,60.42
2022-11-02T08:38:15.569Z,58.45
2022-11-02T08:40:43.044Z,60.02
2022-11-02T08:43:12.208Z,55.26
2022-11-02T08:46:13.223Z,54.28
2022-11-02T08:48:27.583Z,55.88
2022-11-02T08:50:54.242Z,53.59
2022-11-02T08:53:20.808Z,53.33
2022-11-02T08:55:47.368Z,51.60
2022-11-02T08:58:13.863Z,50.41
2022-11-02T09:00:40.432Z,49.22
2022-11-02T09:03:12.297Z,50.27
2022-11-02T09:05:41.637Z,49.07
2022-11-02T09:08:12.616Z,46.59
2022-11-02T09:10:39.201Z,47.80
2022-11-02T09:13:08.530Z,46.96
2022-11-02T09:15:36.724Z,47.42
2022-11-02T09:18:04.784Z,43.92
2022-11-02T09:20:32.761Z,45.56
2022-11-02T09:22:59.599Z,44.74
2022-11-02T09:25:26.644Z,45.47
2022-11-02T09:27:55.759Z,43.38
2022-11-02T09:30:23.667Z,41.65
2022-11-02T09:33:01.047Z,43.33
2022-11-02T09:35:29.949Z,43.25
2022-11-02T09:37:57.293Z,39.83
2022-11-02T09:40:27.011Z,39.00
2022-11-02T09:43:06.047Z,40.14
2022-11-02T09:46:06.544Z,38.60
2022-11-02T09:48:52.694Z,37.96
2022-11-02T09:51:31.918Z,40.58
2022-11-02T09:54:36.456Z,41.52
2022-11-02T09:57:16.758Z,38.49
2022-11-02T09:59:43.317Z,40.78
2022-11-02T10:02:31.610Z,38.39
2022-11-02T10:05:16.741Z,40.10
2022-11-02T10:08:08.407Z,37.74
2022-11-02T10:14:31.172Z,40.77
2022-11-02T10:17:14.665Z,35.80
2022-11-02T10:19:49.591Z,37.05
2022-11-02T10:22:17.028Z,39.37
2022-11-02T10:24:45.439Z,35.31
2022-11-02T10:27:37.925Z,35.64
2022-11-02T10:30:11.164Z,34.75
2022-11-02T10:32:40.557Z,35.29
2022-11-02T10:35:51.414Z,33.45
2022-11-02T10:38:23.995Z,38.06
2022-11-02T10:41:19.678Z,35.30
2022-11-02T10:44:16.878Z,36.63
2022-11-02T10:46:58.271Z,35.74
2022-11-02T10:49:43.144Z,37.16
2022-11-02T10:52:17.483Z,38.43
2022-11-02T10:54:44.039Z,37.41
2022-11-02T10:57:18.735Z,37.02
2022-11-02T10:59:45.198Z,40.18
2022-11-02T11:02:14.545Z,43.90
2022-11-02T11:04:42.201Z,45.75
2022-11-02T11:07:26.442Z,47.83
2022-11-02T11:09:55.611Z,53.46
2022-11-02T11:12:30.539Z,57.37
2022-11-02T11:20:38.525Z,58.21
2022-11-02T11:23:16.760Z,60.68
2022-11-02T11:25:53.151Z,63.09
2022-11-02T11:28:24.285Z,63.96
2022-11-02T11:32:04.974Z,63.95
2022-11-02T11:41:57.461Z,68.16
2022-11-02T11:44:28.513Z,68.57
2022-11-02T11:47:00.883Z,67.93
2022-11-02T11:50:08.958Z,69.79
2022-11-02T11:52:40.363Z,69.02
2022-11-02T11:55:32.380Z,69.89
2022-11-02T12:02:22.566Z,66.44
2022-11-02T12:04:49.509Z,70.63
2022-11-02T12:11:19.309Z,70.88
2022-11-02T12:25:33.986Z,70.49
2022-11-02T12:54:41.738Z,64.01
2022-11-02T13:12:15.452Z,73.66
2022-11-02T13:15:12.890Z,73.32
2022-11-02T13:17:50.551Z,72.65
2022-11-02T13:20:36.209Z,74.13
2022-11-02T13:23:18.269Z,74.48
2022-11-02T13:25:51.793Z,76.11
2022-11-02T13:28:31.065Z,74.09
2022-11-02T13:31:25.010Z,74.92
2022-11-02T13:33:56.051Z,78.58
2022-11-02T13:36:22.961Z,77.70
2022-11-02T13:39:05.880Z,75.72
2022-11-02T13:41:54.353Z,74.99
2022-11-02T13:44:39.136Z,76.31
2022-11-02T13:47:28.961Z,75.82
2022-11-02T13:49:57.486Z,77.51
2022-11-02T13:52:43.674Z,74.88
2022-11-02T13:55:20.564Z,75.46
2022-11-02T13:57:59.375Z,75.56
2022-11-02T14:00:25.928Z,75.74
2022-11-02T14:03:06.586Z,78.43
2022-11-02T14:05:41.110Z,77.11
2022-11-02T14:08:21.950Z,76.49
2022-11-02T14:11:04.052Z,77.94
2022-11-02T14:13:52.408Z,78.92
2022-11-02T14:16:46.657Z,79.32
2022-11-02T14:19:19.598Z,80.24
2022-11-02T14:21:46.550Z,79.74
2022-11-02T14:24:42.220Z,82.07
2022-11-02T14:27:12.034Z,82.64
2022-11-02T14:29:47.324Z,84.88
2022-11-02T14:32:34.646Z,87.48
2022-11-02T14:35:39.662Z,86.87
2022-11-02T14:38:12.130Z,90.63
2022-11-02T14:40:50.663Z,88.48
2022-11-02T14:43:39.980Z,89.77
2022-11-02T14:46:35.581Z,88.23
2022-11-02T14:49:04.300Z,92.73
2022-11-02T14:51:37.888Z,94.93
2022-11-02T14:54:14.984Z,98.30
2022-11-02T14:57:00.335Z,96.21
2022-11-02T14:59:37.916Z,96.94
2022-11-02T15:02:23.756Z,99.30
2022-11-02T15:04:56.339Z,100.00
2022-11-02T15:07:32.708Z,99.64
2022-11-02T15:10:01.926Z,100.00
2022-11-02T15:12:28.358Z,100.00
2022-11-02T15:14:58.799Z,100.00
2022-11-02T15:17:25.223Z,100.00
2022-11-02T15:20:14.733Z,100.00
2022-11-02T15:22:55.514Z,100.00
2022-11-02T15:25:39.494Z,100.00
2022-11-02T15:28:19.532Z,100.00
2022-11-02T15:30:53.285Z,100.00
2022-11-02T15:33:43.906Z,100.00
2022-11-02T15:36:23.366Z,100.00
2022-11-02T15:38:52.847Z,100.00
2022-11-02T15:41:43.902Z,100.00
2022-11-02T15:44:25.142Z,100.00
2022-11-02T15:47:02.342Z,100.00
2022-11-02T15:49:57.149Z,100.00
2022-11-02T15:52:35.424Z,100.00
2022-11-02T15:55:48.161Z,100.00
2022-11-02T15:58:33.191Z,100.00
2022-11-02T16:01:18.790Z,100.00
2022-11-02T16:03:48.169Z,100.00
2022-11-02T16:06:15.164Z,100.00
2022-11-02T16:08:44.092Z,100.00
2022-11-02T16:11:17.601Z,100.00
2022-11-02T16:14:03.446Z,100.00
2022-11-02T16:16:35.712Z,100.00
2022-11-02T16:19:02.678Z,100.00
2022-11-02T16:21:29.190Z,100.00
2022-11-02T16:23:57.632Z,100.00
2022-11-02T16:26:28.686Z,100.00
2022-11-02T16:28:58.486Z,100.00
2022-11-02T16:31:31.044Z,100.00
2022-11-02T16:34:10.868Z,100.00
2022-11-02T16:36:38.432Z,100.00
2022-11-02T16:39:16.440Z,100.00
2022-11-02T16:41:48.568Z,100.00
2022-11-02T16:44:20.343Z,100.00
2022-11-02T16:46:58.951Z,100.00
2022-11-02T16:49:29.288Z,100.00
2022-11-02T16:52:06.556Z,100.00
2022-11-02T16:54:41.562Z,100.00
2022-11-02T16:57:12.059Z,100.00
2022-11-02T16:59:56.633Z,100.00
2022-11-02T17:02:37.180Z,100.00
2022-11-02T17:05:20.803Z,100.00
2022-11-02T17:08:00.204Z,100.00
2022-11-02T17:10:28.893Z,100.00
2022-11-02T17:12:57.060Z,100.00
2022-11-02T17:15:29.582Z,100.00
2022-11-02T17:18:08.778Z,100.00
2022-11-02T17:20:37.780Z,100.00
2022-11-02T17:23:09.935Z,100.00
2022-11-02T17:25:40.140Z,100.00
2022-11-02T17:28:45.368Z,100.00
2022-11-02T17:31:28.978Z,100.00
2022-11-02T17:33:59.247Z,100.00
2022-11-02T17:36:27.281Z,100.00
2022-11-02T17:38:56.611Z,100.00
2022-11-02T17:41:46.264Z,100.00
2022-11-02T17:44:16.970Z,100.00
2022-11-02T17:46:46.027Z,100.00
2022-11-02T17:49:13.000Z,100.00
2022-11-02T17:51:40.761Z,100.00
2022-11-02T17:54:11.908Z,100.00
2022-11-02T17:56:38.542Z,100.00
2022-11-02T17:59:05.285Z,100.00
2022-11-02T18:01:32.328Z,100.00
2022-11-02T18:03:58.905Z,100.00
2022-11-02T18:06:25.433Z,100.00
2022-11-02T18:09:12.830Z,100.00
